sensor_id;sensor_type;location;lat;lon;timestamp;temperature;humidity
5842;DHT22;2947;52.276;9.946;2022-09-01T00:01:43;14.80;99.90
5842;DHT22;2947;52.276;9.946;2022-09-01T00:04:14;14.80;1.00
5842;DHT22;2947;52.276;9.946;2022-09-01T00:06:42;14.90;99.90
5842;DHT22;2947;52.276;9.946;2022-09-01T00:09:11;13.80;1.00
5842;DHT22;2947;52.276;9.946;2022-09-01T00:11:41;14.80;99.90
5842;DHT22;2947;52.276;9.946;2022-09-01T00:14:10;14.80;1.00
5842;DHT22;2947;52.276;9.946;2022-09-01T00:16:36;14.80;99.90
5842;DHT22;2947;52.276;9.946;2022-09-01T00:19:02;16.40;10.60
5842;DHT22;2947;52.276;9.946;2022-09-01T00:21:34;14.70;95.30
5842;DHT22;2947;52.276;9.946;2022-09-01T00:24:03;14.70;99.90
5842;DHT22;2947;52.276;9.946;2022-09-01T00:26:29;14.70;99.90
5842;DHT22;2947;52.276;9.946;2022-09-01T00:28:56;14.70;1.00
5842;DHT22;2947;52.276;9.946;2022-09-01T00:31:22;14.60;99.90
5842;DHT22;2947;52.276;9.946;2022-09-01T00:33:49;14.60;99.90
5842;DHT22;2947;52.276;9.946;2022-09-01T00:36:16;15.00;99.90
5842;DHT22;2947;52.276;9.946;2022-09-01T00:38:42;14.60;1.00
5842;DHT22;2947;52.276;9.946;2022-09-01T00:41:09;14.50;1.00
5842;DHT22;2947;52.276;9.946;2022-09-01T00:43:40;14.60;1.00
5842;DHT22;2947;52.276;9.946;2022-09-01T00:46:15;14.50;1.00
5842;DHT22;2947;52.276;9.946;2022-09-01T00:48:43;14.50;1.00
5842;DHT22;2947;52.276;9.946;2022-09-01T00:51:10;14.50;1.00
5842;DHT22;2947;52.276;9.946;2022-09-01T00:53:40;14.50;1.00
5842;DHT22;2947;52.276;9.946;2022-09-01T00:56:08;14.50;1.00
5842;DHT22;2947;52.276;9.946;2022-09-01T00:58:35;14.50;1.00
5842;DHT22;2947;52.276;9.946;2022-09-01T01:01:04;14.80;95.30
5842;DHT22;2947;52.276;9.946;2022-09-01T01:03:31;14.50;39.00
5842;DHT22;2947;52.276;9.946;2022-09-01T01:06:00;14.40;99.90
5842;DHT22;2947;52.276;9.946;2022-09-01T01:08:31;14.40;99.90
5842;DHT22;2947;52.276;9.946;2022-09-01T01:11:03;14.40;99.90
5842;DHT22;2947;52.276;9.946;2022-09-01T01:13:57;14.30;99.90
5842;DHT22;2947;52.276;9.946;2022-09-01T01:16:30;14.30;99.90
5842;DHT22;2947;52.276;9.946;2022-09-01T01:18:56;16.30;99.90
5842;DHT22;2947;52.276;9.946;2022-09-01T01:21:28;14.30;99.90
5842;DHT22;2947;52.276;9.946;2022-09-01T01:24:23;14.20;99.90
5842;DHT22;2947;52.276;9.946;2022-09-01T01:26:49;14.20;99.90
5842;DHT22;2947;52.276;9.946;2022-09-01T01:29:16;14.10;99.90
5842;DHT22;2947;52.276;9.946;2022-09-01T01:31:43;14.10;99.90
5842;DHT22;2947;52.276;9.946;2022-09-01T01:34:11;14.00;99.90
5842;DHT22;2947;52.276;9.946;2022-09-01T01:36:39;14.00;99.90
5842;DHT22;2947;52.276;9.946;2022-09-01T01:39:09;14.00;99.90
5842;DHT22;2947;52.276;9.946;2022-09-01T01:41:43;13.90;99.90
5842;DHT22;2947;52.276;9.946;2022-09-01T01:44:14;13.90;1.00
5842;DHT22;2947;52.276;9.946;2022-09-01T01:46:47;13.80;1.00
5842;DHT22;2947;52.276;9.946;2022-09-01T01:49:16;13.80;1.00
5842;DHT22;2947;52.276;9.946;2022-09-01T01:51:47;13.70;1.00
5842;DHT22;2947;52.276;9.946;2022-09-01T01:54:14;13.70;1.00
5842;DHT22;2947;52.276;9.946;2022-09-01T01:56:44;13.70;1.00
5842;DHT22;2947;52.276;9.946;2022-09-01T01:59:09;12.80;1.00
5842;DHT22;2947;52.276;9.946;2022-09-01T02:01:40;13.60;1.00
5842;DHT22;2947;52.276;9.946;2022-09-01T02:04:09;13.60;1.00
5842;DHT22;2947;52.276;9.946;2022-09-01T02:06:36;13.50;1.00
5842;DHT22;2947;52.276;9.946;2022-09-01T02:09:06;14.10;1.00
5842;DHT22;2947;52.276;9.946;2022-09-01T02:11:33;13.50;1.00
5842;DHT22;2947;52.276;9.946;2022-09-01T02:14:03;13.50;1.00
5842;DHT22;2947;52.276;9.946;2022-09-01T02:16:31;13.50;1.00
5842;DHT22;2947;52.276;9.946;2022-09-01T02:18:59;13.50;1.00
5842;DHT22;2947;52.276;9.946;2022-09-01T02:21:27;13.50;1.00
5842;DHT22;2947;52.276;9.946;2022-09-01T02:23:59;13.40;1.00
5842;DHT22;2947;52.276;9.946;2022-09-01T02:26:39;13.40;1.00
5842;DHT22;2947;52.276;9.946;2022-09-01T02:29:10;13.40;1.00
5842;DHT22;2947;52.276;9.946;2022-09-01T02:31:50;13.40;1.00
5842;DHT22;2947;52.276;9.946;2022-09-01T02:34:18;14.60;1.00
5842;DHT22;2947;52.276;9.946;2022-09-01T02:36:50;13.30;1.00
5842;DHT22;2947;52.276;9.946;2022-09-01T02:39:28;13.30;1.00
5842;DHT22;2947;52.276;9.946;2022-09-01T02:41:57;13.30;1.00
5842;DHT22;2947;52.276;9.946;2022-09-01T02:44:27;13.20;1.00
5842;DHT22;2947;52.276;9.946;2022-09-01T02:46:56;13.10;1.00
5842;DHT22;2947;52.276;9.946;2022-09-01T02:49:23;13.20;1.00
5842;DHT22;2947;52.276;9.946;2022-09-01T02:51:53;13.10;1.00
5842;DHT22;2947;52.276;9.946;2022-09-01T02:54:26;13.00;1.00
5842;DHT22;2947;52.276;9.946;2022-09-01T02:56:59;12.90;1.00
5842;DHT22;2947;52.276;9.946;2022-09-01T02:59:27;12.90;1.00
5842;DHT22;2947;52.276;9.946;2022-09-01T03:01:54;12.80;1.00
5842;DHT22;2947;52.276;9.946;2022-09-01T03:04:22;12.80;1.00
5842;DHT22;2947;52.276;9.946;2022-09-01T03:06:49;12.80;1.00
5842;DHT22;2947;52.276;9.946;2022-09-01T03:09:20;12.70;1.00
5842;DHT22;2947;52.276;9.946;2022-09-01T03:11:48;12.70;1.00
5842;DHT22;2947;52.276;9.946;2022-09-01T03:14:15;12.60;1.00
5842;DHT22;2947;52.276;9.946;2022-09-01T03:16:41;12.60;1.00
5842;DHT22;2947;52.276;9.946;2022-09-01T03:19:08;12.60;1.00
5842;DHT22;2947;52.276;9.946;2022-09-01T03:21:40;12.50;1.00
5842;DHT22;2947;52.276;9.946;2022-09-01T03:24:09;12.40;6.50
5842;DHT22;2947;52.276;9.946;2022-09-01T03:26:40;12.50;12.70
5842;DHT22;2947;52.276;9.946;2022-09-01T03:29:07;12.50;12.00
5842;DHT22;2947;52.276;9.946;2022-09-01T03:31:34;12.40;17.40
5842;DHT22;2947;52.276;9.946;2022-09-01T03:34:01;12.40;27.90
5842;DHT22;2947;52.276;9.946;2022-09-01T03:36:29;12.40;23.80
5842;DHT22;2947;52.276;9.946;2022-09-01T03:38:57;12.50;17.60
5842;DHT22;2947;52.276;9.946;2022-09-01T03:41:27;12.40;25.50
5842;DHT22;2947;52.276;9.946;2022-09-01T03:43:55;12.60;24.00
5842;DHT22;2947;52.276;9.946;2022-09-01T03:46:24;12.40;25.50
5842;DHT22;2947;52.276;9.946;2022-09-01T03:48:54;12.40;27.60
5842;DHT22;2947;52.276;9.946;2022-09-01T03:51:23;12.40;36.20
5842;DHT22;2947;52.276;9.946;2022-09-01T03:53:51;12.40;36.50
5842;DHT22;2947;52.276;9.946;2022-09-01T03:56:19;12.40;37.30
5842;DHT22;2947;52.276;9.946;2022-09-01T03:58:46;12.40;40.50
5842;DHT22;2947;52.276;9.946;2022-09-01T04:01:13;12.30;42.60
5842;DHT22;2947;52.276;9.946;2022-09-01T04:03:39;12.80;59.30
5842;DHT22;2947;52.276;9.946;2022-09-01T04:06:07;12.30;50.50
5842;DHT22;2947;52.276;9.946;2022-09-01T04:08:34;12.30;59.00
5842;DHT22;2947;52.276;9.946;2022-09-01T04:11:04;12.30;60.40
5842;DHT22;2947;52.276;9.946;2022-09-01T04:13:39;12.30;66.10
5842;DHT22;2947;52.276;9.946;2022-09-01T04:16:06;13.10;71.70
5842;DHT22;2947;52.276;9.946;2022-09-01T04:19:01;12.30;66.20
5842;DHT22;2947;52.276;9.946;2022-09-01T04:21:40;12.20;79.40
5842;DHT22;2947;52.276;9.946;2022-09-01T04:24:08;12.20;92.50
5842;DHT22;2947;52.276;9.946;2022-09-01T04:26:35;12.20;94.60
5842;DHT22;2947;52.276;9.946;2022-09-01T04:29:02;12.20;86.30
5842;DHT22;2947;52.276;9.946;2022-09-01T04:31:28;12.20;81.20
5842;DHT22;2947;52.276;9.946;2022-09-01T04:33:56;13.10;78.20
5842;DHT22;2947;52.276;9.946;2022-09-01T04:36:27;12.30;70.10
5842;DHT22;2947;52.276;9.946;2022-09-01T04:39:03;12.30;72.10
5842;DHT22;2947;52.276;9.946;2022-09-01T04:41:37;12.30;68.80
5842;DHT22;2947;52.276;9.946;2022-09-01T04:44:06;12.20;83.80
5842;DHT22;2947;52.276;9.946;2022-09-01T04:46:34;12.20;82.20
5842;DHT22;2947;52.276;9.946;2022-09-01T04:49:04;12.30;90.80
5842;DHT22;2947;52.276;9.946;2022-09-01T04:51:37;12.30;98.20
5842;DHT22;2947;52.276;9.946;2022-09-01T04:54:04;12.30;86.10
5842;DHT22;2947;52.276;9.946;2022-09-01T04:56:34;12.30;93.70
5842;DHT22;2947;52.276;9.946;2022-09-01T04:59:00;12.30;84.60
5842;DHT22;2947;52.276;9.946;2022-09-01T05:01:28;12.30;85.60
5842;DHT22;2947;52.276;9.946;2022-09-01T05:03:54;12.30;82.10
5842;DHT22;2947;52.276;9.946;2022-09-01T05:06:27;12.40;71.40
5842;DHT22;2947;52.276;9.946;2022-09-01T05:08:54;14.10;67.40
5842;DHT22;2947;52.276;9.946;2022-09-01T05:11:22;12.50;63.90
5842;DHT22;2947;52.276;9.946;2022-09-01T05:13:49;12.50;56.00
5842;DHT22;2947;52.276;9.946;2022-09-01T05:16:18;12.20;58.10
5842;DHT22;2947;52.276;9.946;2022-09-01T05:18:47;12.60;67.40
5842;DHT22;2947;52.276;9.946;2022-09-01T05:21:16;12.70;63.00
5842;DHT22;2947;52.276;9.946;2022-09-01T05:23:47;13.60;54.50
5842;DHT22;2947;52.276;9.946;2022-09-01T05:26:27;12.80;50.70
5842;DHT22;2947;52.276;9.946;2022-09-01T05:28:58;13.00;49.50
5842;DHT22;2947;52.276;9.946;2022-09-01T05:31:29;13.00;28.40
5842;DHT22;2947;52.276;9.946;2022-09-01T05:33:59;13.40;34.60
5842;DHT22;2947;52.276;9.946;2022-09-01T05:36:27;13.20;25.00
5842;DHT22;2947;52.276;9.946;2022-09-01T05:38:56;13.20;24.20
5842;DHT22;2947;52.276;9.946;2022-09-01T05:41:24;12.80;13.60
5842;DHT22;2947;52.276;9.946;2022-09-01T05:43:50;13.40;7.50
5842;DHT22;2947;52.276;9.946;2022-09-01T05:46:19;13.50;1.00
5842;DHT22;2947;52.276;9.946;2022-09-01T05:48:48;13.60;1.00
5842;DHT22;2947;52.276;9.946;2022-09-01T05:51:18;13.70;1.00
5842;DHT22;2947;52.276;9.946;2022-09-01T05:53:47;14.00;1.00
5842;DHT22;2947;52.276;9.946;2022-09-01T05:56:16;13.80;1.00
5842;DHT22;2947;52.276;9.946;2022-09-01T05:58:44;14.50;1.00
5842;DHT22;2947;52.276;9.946;2022-09-01T06:01:20;13.90;1.00
5842;DHT22;2947;52.276;9.946;2022-09-01T06:03:49;14.00;1.00
5842;DHT22;2947;52.276;9.946;2022-09-01T06:06:21;14.10;1.00
5842;DHT22;2947;52.276;9.946;2022-09-01T06:08:51;14.20;1.00
5842;DHT22;2947;52.276;9.946;2022-09-01T06:11:18;14.20;1.00
5842;DHT22;2947;52.276;9.946;2022-09-01T06:13:45;14.30;1.00
5842;DHT22;2947;52.276;9.946;2022-09-01T06:16:14;14.80;1.00
5842;DHT22;2947;52.276;9.946;2022-09-01T06:18:41;14.40;1.00
5842;DHT22;2947;52.276;9.946;2022-09-01T06:21:08;14.50;1.00
5842;DHT22;2947;52.276;9.946;2022-09-01T06:23:43;14.60;1.00
5842;DHT22;2947;52.276;9.946;2022-09-01T06:26:21;14.70;1.00
5842;DHT22;2947;52.276;9.946;2022-09-01T06:28:52;14.80;1.00
5842;DHT22;2947;52.276;9.946;2022-09-01T06:31:22;14.80;1.00
5842;DHT22;2947;52.276;9.946;2022-09-01T06:33:54;15.00;1.00
5842;DHT22;2947;52.276;9.946;2022-09-01T06:36:23;15.00;1.00
5842;DHT22;2947;52.276;9.946;2022-09-01T06:38:51;14.90;1.00
5842;DHT22;2947;52.276;9.946;2022-09-01T06:41:18;15.10;1.00
5842;DHT22;2947;52.276;9.946;2022-09-01T06:43:46;15.10;1.00
5842;DHT22;2947;52.276;9.946;2022-09-01T06:46:14;15.20;1.00
5842;DHT22;2947;52.276;9.946;2022-09-01T06:48:42;16.30;1.00
5842;DHT22;2947;52.276;9.946;2022-09-01T06:51:19;15.40;1.00
5842;DHT22;2947;52.276;9.946;2022-09-01T06:53:50;15.70;1.00
5842;DHT22;2947;52.276;9.946;2022-09-01T06:56:17;16.10;1.00
5842;DHT22;2947;52.276;9.946;2022-09-01T06:58:44;15.90;1.00
5842;DHT22;2947;52.276;9.946;2022-09-01T07:01:13;15.90;99.90
5842;DHT22;2947;52.276;9.946;2022-09-01T07:03:45;16.00;99.90
5842;DHT22;2947;52.276;9.946;2022-09-01T07:06:13;16.10;99.90
5842;DHT22;2947;52.276;9.946;2022-09-01T07:08:40;16.20;99.90
5842;DHT22;2947;52.276;9.946;2022-09-01T07:11:16;16.60;1.00
5842;DHT22;2947;52.276;9.946;2022-09-01T07:13:48;16.40;99.90
5842;DHT22;2947;52.276;9.946;2022-09-01T07:16:18;16.60;99.90
5842;DHT22;2947;52.276;9.946;2022-09-01T07:18:46;16.70;99.90
5842;DHT22;2947;52.276;9.946;2022-09-01T07:21:17;16.70;1.00
5842;DHT22;2947;52.276;9.946;2022-09-01T07:23:43;16.80;99.90
5842;DHT22;2947;52.276;9.946;2022-09-01T07:26:10;16.90;1.00
5842;DHT22;2947;52.276;9.946;2022-09-01T07:28:36;17.00;1.00
5842;DHT22;2947;52.276;9.946;2022-09-01T07:31:03;17.20;99.90
5842;DHT22;2947;52.276;9.946;2022-09-01T07:33:30;17.20;1.00
5842;DHT22;2947;52.276;9.946;2022-09-01T07:35:57;17.30;99.90
5842;DHT22;2947;52.276;9.946;2022-09-01T07:38:24;17.70;1.00
5842;DHT22;2947;52.276;9.946;2022-09-01T07:40:51;17.50;1.00
5842;DHT22;2947;52.276;9.946;2022-09-01T07:43:24;17.60;1.00
5842;DHT22;2947;52.276;9.946;2022-09-01T07:45:54;17.80;1.00
5842;DHT22;2947;52.276;9.946;2022-09-01T07:48:23;18.70;92.90
5842;DHT22;2947;52.276;9.946;2022-09-01T07:50:53;18.00;1.00
5842;DHT22;2947;52.276;9.946;2022-09-01T07:53:27;18.20;91.00
5842;DHT22;2947;52.276;9.946;2022-09-01T07:56:05;18.30;99.90
5842;DHT22;2947;52.276;9.946;2022-09-01T07:58:34;18.40;99.90
5842;DHT22;2947;52.276;9.946;2022-09-01T08:01:00;18.40;99.90
5842;DHT22;2947;52.276;9.946;2022-09-01T08:03:28;18.60;89.90
5842;DHT22;2947;52.276;9.946;2022-09-01T08:05:54;18.80;1.00
5842;DHT22;2947;52.276;9.946;2022-09-01T08:08:26;18.80;1.00
5842;DHT22;2947;52.276;9.946;2022-09-01T08:10:52;18.90;1.00
5842;DHT22;2947;52.276;9.946;2022-09-01T08:13:19;19.00;1.00
5842;DHT22;2947;52.276;9.946;2022-09-01T08:15:45;19.10;1.00
5842;DHT22;2947;52.276;9.946;2022-09-01T08:18:12;19.20;1.00
5842;DHT22;2947;52.276;9.946;2022-09-01T08:20:39;19.30;1.00
5842;DHT22;2947;52.276;9.946;2022-09-01T08:23:11;20.30;1.00
5842;DHT22;2947;52.276;9.946;2022-09-01T08:25:39;19.50;99.90
5842;DHT22;2947;52.276;9.946;2022-09-01T08:28:07;19.50;99.90
5842;DHT22;2947;52.276;9.946;2022-09-01T08:30:33;19.60;99.90
5842;DHT22;2947;52.276;9.946;2022-09-01T08:33:01;19.70;99.90
5842;DHT22;2947;52.276;9.946;2022-09-01T08:35:27;19.80;99.90
5842;DHT22;2947;52.276;9.946;2022-09-01T08:37:55;20.50;99.90
5842;DHT22;2947;52.276;9.946;2022-09-01T08:40:22;20.00;99.90
5842;DHT22;2947;52.276;9.946;2022-09-01T08:45:50;20.40;99.90
5842;DHT22;2947;52.276;9.946;2022-09-01T08:48:41;20.50;99.90
5842;DHT22;2947;52.276;9.946;2022-09-01T08:57:00;20.80;99.90
5842;DHT22;2947;52.276;9.946;2022-09-01T08:59:26;21.00;99.90
5842;DHT22;2947;52.276;9.946;2022-09-01T09:02:12;21.20;99.90
5842;DHT22;2947;52.276;9.946;2022-09-01T09:05:05;21.30;99.90
5842;DHT22;2947;52.276;9.946;2022-09-01T09:11:08;21.50;99.90
5842;DHT22;2947;52.276;9.946;2022-09-01T09:16:48;21.80;99.90
5842;DHT22;2947;52.276;9.946;2022-09-01T09:19:30;21.80;99.90
5842;DHT22;2947;52.276;9.946;2022-09-01T09:22:00;21.90;99.90
5842;DHT22;2947;52.276;9.946;2022-09-01T09:27:24;22.10;99.90
5842;DHT22;2947;52.276;9.946;2022-09-01T09:29:55;22.10;99.90
5842;DHT22;2947;52.276;9.946;2022-09-01T09:32:42;22.20;99.90
5842;DHT22;2947;52.276;9.946;2022-09-01T09:35:36;22.30;99.90
5842;DHT22;2947;52.276;9.946;2022-09-01T09:43:23;22.60;99.90
5842;DHT22;2947;52.276;9.946;2022-09-01T09:45:49;22.60;99.90
5842;DHT22;2947;52.276;9.946;2022-09-01T09:48:30;22.60;99.90
5842;DHT22;2947;52.276;9.946;2022-09-01T09:51:15;22.90;99.90
5842;DHT22;2947;52.276;9.946;2022-09-01T09:53:42;22.90;99.90
5842;DHT22;2947;52.276;9.946;2022-09-01T09:56:19;23.10;99.90
5842;DHT22;2947;52.276;9.946;2022-09-01T09:58:49;23.10;99.90
5842;DHT22;2947;52.276;9.946;2022-09-01T10:03:59;23.10;99.90
5842;DHT22;2947;52.276;9.946;2022-09-01T10:06:32;23.30;99.90
5842;DHT22;2947;52.276;9.946;2022-09-01T10:09:01;23.40;99.90
5842;DHT22;2947;52.276;9.946;2022-09-01T10:11:52;23.50;99.90
5842;DHT22;2947;52.276;9.946;2022-09-01T10:14:49;23.50;99.90
5842;DHT22;2947;52.276;9.946;2022-09-01T10:17:38;23.50;99.90
5842;DHT22;2947;52.276;9.946;2022-09-01T10:20:08;23.50;99.90
5842;DHT22;2947;52.276;9.946;2022-09-01T10:22:37;23.50;99.90
5842;DHT22;2947;52.276;9.946;2022-09-01T10:25:06;23.70;99.90
5842;DHT22;2947;52.276;9.946;2022-09-01T10:27:40;23.70;99.90
5842;DHT22;2947;52.276;9.946;2022-09-01T10:30:16;24.40;99.90
5842;DHT22;2947;52.276;9.946;2022-09-01T10:35:33;24.10;99.90
5842;DHT22;2947;52.276;9.946;2022-09-01T10:38:08;24.00;99.90
5842;DHT22;2947;52.276;9.946;2022-09-01T10:40:58;24.10;99.90
5842;DHT22;2947;52.276;9.946;2022-09-01T10:48:50;24.20;99.90
5842;DHT22;2947;52.276;9.946;2022-09-01T10:53:51;24.10;99.90
5842;DHT22;2947;52.276;9.946;2022-09-01T10:56:36;24.10;99.90
5842;DHT22;2947;52.276;9.946;2022-09-01T11:13:14;24.50;99.90
5842;DHT22;2947;52.276;9.946;2022-09-01T11:15:52;24.50;99.90
5842;DHT22;2947;52.276;9.946;2022-09-01T11:18:26;24.60;99.90
5842;DHT22;2947;52.276;9.946;2022-09-01T11:21:16;24.70;99.90
5842;DHT22;2947;52.276;9.946;2022-09-01T11:23:48;24.80;99.90
5842;DHT22;2947;52.276;9.946;2022-09-01T11:28:59;24.90;99.90
5842;DHT22;2947;52.276;9.946;2022-09-01T11:31:39;25.00;99.90
5842;DHT22;2947;52.276;9.946;2022-09-01T11:45:12;24.80;99.90
5842;DHT22;2947;52.276;9.946;2022-09-01T11:50:03;24.80;99.90
5842;DHT22;2947;52.276;9.946;2022-09-01T11:52:35;24.70;99.90
5842;DHT22;2947;52.276;9.946;2022-09-01T11:55:04;24.80;99.90
5842;DHT22;2947;52.276;9.946;2022-09-01T11:57:34;24.70;99.90
5842;DHT22;2947;52.276;9.946;2022-09-01T12:00:09;24.70;99.90
5842;DHT22;2947;52.276;9.946;2022-09-01T12:02:56;24.10;99.90
5842;DHT22;2947;52.276;9.946;2022-09-01T12:05:33;24.60;99.90
5842;DHT22;2947;52.276;9.946;2022-09-01T12:08:16;24.70;99.90
5842;DHT22;2947;52.276;9.946;2022-09-01T12:10:43;24.70;99.90
5842;DHT22;2947;52.276;9.946;2022-09-01T12:13:16;24.80;99.90
5842;DHT22;2947;52.276;9.946;2022-09-01T12:15:51;24.90;99.90
5842;DHT22;2947;52.276;9.946;2022-09-01T12:18:31;24.70;99.90
5842;DHT22;2947;52.276;9.946;2022-09-01T12:21:06;24.50;99.90
5842;DHT22;2947;52.276;9.946;2022-09-01T12:23:38;24.50;99.90
5842;DHT22;2947;52.276;9.946;2022-09-01T12:26:11;24.40;99.90
5842;DHT22;2947;52.276;9.946;2022-09-01T12:28:39;24.50;99.90
5842;DHT22;2947;52.276;9.946;2022-09-01T12:31:17;24.50;99.90
5842;DHT22;2947;52.276;9.946;2022-09-01T12:33:46;24.50;99.90
5842;DHT22;2947;52.276;9.946;2022-09-01T12:36:35;24.50;99.90
5842;DHT22;2947;52.276;9.946;2022-09-01T12:41:44;24.70;99.90
5842;DHT22;2947;52.276;9.946;2022-09-01T12:47:13;24.90;99.90
5842;DHT22;2947;52.276;9.946;2022-09-01T12:52:52;25.00;99.90
5842;DHT22;2947;52.276;9.946;2022-09-01T12:55:23;25.00;99.90
5842;DHT22;2947;52.276;9.946;2022-09-01T12:58:01;25.10;99.90
5842;DHT22;2947;52.276;9.946;2022-09-01T13:00:32;25.10;99.90
5842;DHT22;2947;52.276;9.946;2022-09-01T13:05:43;25.40;99.90
5842;DHT22;2947;52.276;9.946;2022-09-01T13:08:15;25.40;99.90
5842;DHT22;2947;52.276;9.946;2022-09-01T13:10:51;25.40;99.90
5842;DHT22;2947;52.276;9.946;2022-09-01T13:13:20;25.40;99.90
5842;DHT22;2947;52.276;9.946;2022-09-01T13:15:50;25.20;99.90
5842;DHT22;2947;52.276;9.946;2022-09-01T13:18:23;25.10;99.90
5842;DHT22;2947;52.276;9.946;2022-09-01T13:20:50;25.10;99.90
5842;DHT22;2947;52.276;9.946;2022-09-01T13:23:18;25.10;99.90
5842;DHT22;2947;52.276;9.946;2022-09-01T13:25:44;25.00;99.90
5842;DHT22;2947;52.276;9.946;2022-09-01T13:28:12;25.00;99.90
5842;DHT22;2947;52.276;9.946;2022-09-01T13:30:39;24.80;99.00
5842;DHT22;2947;52.276;9.946;2022-09-01T13:33:05;24.80;98.50
5842;DHT22;2947;52.276;9.946;2022-09-01T13:35:32;24.80;99.40
5842;DHT22;2947;52.276;9.946;2022-09-01T13:37:57;24.80;99.20
5842;DHT22;2947;52.276;9.946;2022-09-01T13:40:23;24.80;98.50
5842;DHT22;2947;52.276;9.946;2022-09-01T13:42:51;24.70;98.40
5842;DHT22;2947;52.276;9.946;2022-09-01T13:45:21;24.70;97.80
5842;DHT22;2947;52.276;9.946;2022-09-01T13:47:50;24.80;97.30
5842;DHT22;2947;52.276;9.946;2022-09-01T13:50:19;24.70;96.90
5842;DHT22;2947;52.276;9.946;2022-09-01T13:52:56;24.70;97.20
5842;DHT22;2947;52.276;9.946;2022-09-01T13:55:28;24.60;95.50
5842;DHT22;2947;52.276;9.946;2022-09-01T13:57:56;24.50;94.10
5842;DHT22;2947;52.276;9.946;2022-09-01T14:00:26;24.40;93.10
5842;DHT22;2947;52.276;9.946;2022-09-01T14:02:56;24.30;92.90
5842;DHT22;2947;52.276;9.946;2022-09-01T14:05:28;24.20;92.90
5842;DHT22;2947;52.276;9.946;2022-09-01T14:07:55;24.30;93.00
5842;DHT22;2947;52.276;9.946;2022-09-01T14:10:24;25.00;91.80
5842;DHT22;2947;52.276;9.946;2022-09-01T14:12:51;24.30;92.10
5842;DHT22;2947;52.276;9.946;2022-09-01T14:15:18;24.20;92.60
5842;DHT22;2947;52.276;9.946;2022-09-01T14:17:46;23.90;91.10
5842;DHT22;2947;52.276;9.946;2022-09-01T14:20:20;24.00;91.00
5842;DHT22;2947;52.276;9.946;2022-09-01T14:22:48;23.90;90.00
5842;DHT22;2947;52.276;9.946;2022-09-01T14:25:15;23.90;90.00
5842;DHT22;2947;52.276;9.946;2022-09-01T14:27:43;23.90;88.80
5842;DHT22;2947;52.276;9.946;2022-09-01T14:30:29;23.70;85.60
5842;DHT22;2947;52.276;9.946;2022-09-01T14:32:57;23.70;84.10
5842;DHT22;2947;52.276;9.946;2022-09-01T14:35:24;23.60;83.10
5842;DHT22;2947;52.276;9.946;2022-09-01T14:37:51;23.60;78.80
5842;DHT22;2947;52.276;9.946;2022-09-01T14:40:20;23.40;76.50
5842;DHT22;2947;52.276;9.946;2022-09-01T14:42:48;23.40;78.80
5842;DHT22;2947;52.276;9.946;2022-09-01T14:45:18;23.40;78.60
5842;DHT22;2947;52.276;9.946;2022-09-01T14:47:48;23.40;76.40
5842;DHT22;2947;52.276;9.946;2022-09-01T14:50:16;23.30;76.10
5842;DHT22;2947;52.276;9.946;2022-09-01T14:52:44;23.20;75.30
5842;DHT22;2947;52.276;9.946;2022-09-01T14:55:09;23.30;73.60
5842;DHT22;2947;52.276;9.946;2022-09-01T14:57:35;23.20;74.30
5842;DHT22;2947;52.276;9.946;2022-09-01T15:00:05;23.20;76.40
5842;DHT22;2947;52.276;9.946;2022-09-01T15:02:35;23.30;74.00
5842;DHT22;2947;52.276;9.946;2022-09-01T15:05:02;23.20;73.90
5842;DHT22;2947;52.276;9.946;2022-09-01T15:07:28;23.30;75.20
5842;DHT22;2947;52.276;9.946;2022-09-01T15:09:53;23.00;70.30
5842;DHT22;2947;52.276;9.946;2022-09-01T15:12:20;23.10;71.00
5842;DHT22;2947;52.276;9.946;2022-09-01T15:14:46;23.10;69.30
5842;DHT22;2947;52.276;9.946;2022-09-01T15:17:12;23.10;71.00
5842;DHT22;2947;52.276;9.946;2022-09-01T15:19:38;23.10;70.20
5842;DHT22;2947;52.276;9.946;2022-09-01T15:22:03;23.20;72.40
5842;DHT22;2947;52.276;9.946;2022-09-01T15:24:31;23.20;71.40
5842;DHT22;2947;52.276;9.946;2022-09-01T15:26:57;23.20;73.20
5842;DHT22;2947;52.276;9.946;2022-09-01T15:29:23;23.20;73.40
5842;DHT22;2947;52.276;9.946;2022-09-01T15:31:48;23.20;71.90
5842;DHT22;2947;52.276;9.946;2022-09-01T15:34:14;23.30;73.50
5842;DHT22;2947;52.276;9.946;2022-09-01T15:36:42;23.20;70.80
5842;DHT22;2947;52.276;9.946;2022-09-01T15:39:09;23.10;70.10
5842;DHT22;2947;52.276;9.946;2022-09-01T15:41:36;23.10;67.80
5842;DHT22;2947;52.276;9.946;2022-09-01T15:44:04;23.00;66.30
5842;DHT22;2947;52.276;9.946;2022-09-01T15:46:32;22.90;66.00
5842;DHT22;2947;52.276;9.946;2022-09-01T15:49:04;23.00;65.00
5842;DHT22;2947;52.276;9.946;2022-09-01T15:51:41;22.90;63.10
5842;DHT22;2947;52.276;9.946;2022-09-01T15:54:14;22.80;62.60
5842;DHT22;2947;52.276;9.946;2022-09-01T15:56:42;23.30;64.60
5842;DHT22;2947;52.276;9.946;2022-09-01T15:59:09;22.90;62.80
5842;DHT22;2947;52.276;9.946;2022-09-01T16:01:38;22.80;62.60
5842;DHT22;2947;52.276;9.946;2022-09-01T16:04:07;22.90;65.50
5842;DHT22;2947;52.276;9.946;2022-09-01T16:06:41;22.90;63.40
5842;DHT22;2947;52.276;9.946;2022-09-01T16:09:08;22.90;64.60
5842;DHT22;2947;52.276;9.946;2022-09-01T16:11:34;22.90;63.30
5842;DHT22;2947;52.276;9.946;2022-09-01T16:14:02;22.90;62.40
5842;DHT22;2947;52.276;9.946;2022-09-01T16:19:51;22.80;60.40
5842;DHT22;2947;52.276;9.946;2022-09-01T16:22:32;22.80;60.00
5842;DHT22;2947;52.276;9.946;2022-09-01T16:25:07;22.70;60.90
5842;DHT22;2947;52.276;9.946;2022-09-01T16:27:43;22.80;60.10
5842;DHT22;2947;52.276;9.946;2022-09-01T16:30:12;22.80;59.20
5842;DHT22;2947;52.276;9.946;2022-09-01T16:32:44;22.70;58.90
5842;DHT22;2947;52.276;9.946;2022-09-01T16:35:12;22.70;57.90
5842;DHT22;2947;52.276;9.946;2022-09-01T16:40:49;22.70;57.60
5842;DHT22;2947;52.276;9.946;2022-09-01T16:43:40;22.60;57.30
5842;DHT22;2947;52.276;9.946;2022-09-01T16:46:19;22.60;56.00
5842;DHT22;2947;52.276;9.946;2022-09-01T17:00:08;22.50;55.30
5842;DHT22;2947;52.276;9.946;2022-09-01T17:02:43;22.50;54.30
5842;DHT22;2947;52.276;9.946;2022-09-01T17:05:27;22.50;55.30
5842;DHT22;2947;52.276;9.946;2022-09-01T17:08:19;22.40;54.20
5842;DHT22;2947;52.276;9.946;2022-09-01T17:11:18;22.30;72.80
5842;DHT22;2947;52.276;9.946;2022-09-01T17:13:58;22.30;53.50
5842;DHT22;2947;52.276;9.946;2022-09-01T17:16:34;22.20;52.30
5842;DHT22;2947;52.276;9.946;2022-09-01T17:19:06;22.10;51.40
5842;DHT22;2947;52.276;9.946;2022-09-01T17:22:05;22.00;51.90
5842;DHT22;2947;52.276;9.946;2022-09-01T17:24:36;21.90;51.30
5842;DHT22;2947;52.276;9.946;2022-09-01T17:29:59;21.80;48.50
5842;DHT22;2947;52.276;9.946;2022-09-01T17:35:24;21.60;47.40
5842;DHT22;2947;52.276;9.946;2022-09-01T17:38:05;21.50;45.30
5842;DHT22;2947;52.276;9.946;2022-09-01T17:46:37;21.30;43.30
5842;DHT22;2947;52.276;9.946;2022-09-01T17:49:20;21.20;43.50
5842;DHT22;2947;52.276;9.946;2022-09-01T17:55:55;21.20;44.10
5842;DHT22;2947;52.276;9.946;2022-09-01T18:01:48;21.00;43.00
5842;DHT22;2947;52.276;9.946;2022-09-01T18:10:36;20.90;41.90
5842;DHT22;2947;52.276;9.946;2022-09-01T18:13:13;20.90;42.00
5842;DHT22;2947;52.276;9.946;2022-09-01T18:15:50;20.70;40.70
5842;DHT22;2947;52.276;9.946;2022-09-01T18:18:36;20.60;41.50
5842;DHT22;2947;52.276;9.946;2022-09-01T18:21:15;20.60;39.90
5842;DHT22;2947;52.276;9.946;2022-09-01T18:23:56;20.60;39.50
5842;DHT22;2947;52.276;9.946;2022-09-01T18:26:47;20.50;39.10
5842;DHT22;2947;52.276;9.946;2022-09-01T18:29:14;20.40;38.70
5842;DHT22;2947;52.276;9.946;2022-09-01T18:32:08;20.40;38.40